createdAt,value
2023-05-01T00:01:02.638Z,5.15
2023-05-01T00:03:31.256Z,4.85
2023-05-01T00:06:03.356Z,4.95
2023-05-01T00:08:31.810Z,4.78
2023-05-01T00:11:03.380Z,5.18
2023-05-01T00:13:30.987Z,5.10
2023-05-01T00:15:58.325Z,5.28
2023-05-01T00:18:25.323Z,5.18
2023-05-01T00:20:53.652Z,4.97
2023-05-01T00:23:20.791Z,5.45
2023-05-01T00:25:47.681Z,5.35
2023-05-01T00:28:14.666Z,5.03
2023-05-01T00:30:41.740Z,5.47
2023-05-01T00:33:08.801Z,5.30
2023-05-01T00:35:35.803Z,5.07
2023-05-01T00:38:04.316Z,4.63
2023-05-01T00:40:31.484Z,5.13
2023-05-01T00:42:58.439Z,4.55
2023-05-01T00:45:25.714Z,4.88
2023-05-01T00:47:52.720Z,4.43
2023-05-01T00:50:19.882Z,4.75
2023-05-01T00:52:46.938Z,4.85
2023-05-01T00:55:16.189Z,4.80
2023-05-01T00:57:43.111Z,4.38
2023-05-01T01:00:12.420Z,5.18
2023-05-01T01:02:39.418Z,4.18
2023-05-01T01:05:06.926Z,4.53
2023-05-01T01:07:42.068Z,5.25
2023-05-01T01:10:18.445Z,4.93
2023-05-01T01:12:53.617Z,5.03
2023-05-01T01:15:29.139Z,4.70
2023-05-01T01:18:02.648Z,4.85
2023-05-01T01:20:38.133Z,4.85
2023-05-01T01:23:31.358Z,4.85
2023-05-01T01:26:33.156Z,5.28
2023-05-01T01:29:29.434Z,4.75
2023-05-01T01:32:07.599Z,4.72
2023-05-01T01:34:44.912Z,4.85
2023-05-01T01:37:17.506Z,4.97
2023-05-01T01:39:50.084Z,4.97
2023-05-01T01:42:21.002Z,4.07
2023-05-01T01:44:51.779Z,4.80
2023-05-01T01:47:21.275Z,4.65
2023-05-01T01:49:52.753Z,4.93
2023-05-01T01:52:22.068Z,4.40
2023-05-01T01:54:54.139Z,4.90
2023-05-01T01:57:22.983Z,5.55
2023-05-01T01:59:51.362Z,5.47
2023-05-01T02:02:20.779Z,5.80
2023-05-01T02:04:53.900Z,5.57
2023-05-01T02:07:26.879Z,5.28
2023-05-01T02:09:56.165Z,4.50
2023-05-01T02:12:26.724Z,5.60
2023-05-01T02:14:54.557Z,4.72
2023-05-01T02:17:21.968Z,4.65
2023-05-01T02:19:50.534Z,4.70
2023-05-01T02:22:20.671Z,5.18
2023-05-01T02:24:49.603Z,5.25
2023-05-01T02:27:24.128Z,4.88
2023-05-01T02:29:52.122Z,5.18
2023-05-01T02:32:19.995Z,4.53
2023-05-01T02:34:47.118Z,4.93
2023-05-01T02:37:14.134Z,4.78
2023-05-01T02:39:46.594Z,5.10
2023-05-01T02:42:16.357Z,4.43
2023-05-01T02:44:51.103Z,4.55
2023-05-01T02:47:21.491Z,4.65
2023-05-01T02:49:49.133Z,5.60
2023-05-01T02:52:16.866Z,5.70
2023-05-01T02:54:46.711Z,5.60
2023-05-01T02:57:14.120Z,5.88
2023-05-01T02:59:41.104Z,7.75
2023-05-01T03:02:08.430Z,6.32
2023-05-01T03:04:35.563Z,7.43
2023-05-01T03:07:02.548Z,7.03
2023-05-01T03:09:29.849Z,7.10
2023-05-01T03:11:58.354Z,7.35
2023-05-01T03:14:25.456Z,7.57
2023-05-01T03:16:53.132Z,6.63
2023-05-01T03:19:20.796Z,6.13
2023-05-01T03:21:47.673Z,6.32
2023-05-01T03:24:14.605Z,8.48
2023-05-01T03:26:41.711Z,9.25
2023-05-01T03:29:12.741Z,11.48
2023-05-01T03:31:40.737Z,11.05
2023-05-01T03:34:09.729Z,10.75
2023-05-01T03:36:36.866Z,8.68
2023-05-01T03:39:04.919Z,8.35
2023-05-01T03:41:59.084Z,9.55
2023-05-01T03:44:30.770Z,7.78
2023-05-01T03:46:57.731Z,6.93
2023-05-01T03:49:28.866Z,8.52
2023-05-01T03:51:55.818Z,7.90
2023-05-01T03:54:23.264Z,6.60
2023-05-01T03:57:04.415Z,5.82
2023-05-01T03:59:35.445Z,6.30
2023-05-01T04:02:02.607Z,5.82
2023-05-01T04:04:33.250Z,5.95
2023-05-01T04:07:00.858Z,5.88
2023-05-01T04:09:29.863Z,5.97
2023-05-01T04:11:57.663Z,5.90
2023-05-01T04:14:24.630Z,5.93
2023-05-01T04:16:53.103Z,5.68
2023-05-01T04:19:20.082Z,5.30
2023-05-01T04:21:51.314Z,5.38
2023-05-01T04:24:18.358Z,5.45
2023-05-01T04:26:45.514Z,5.45
2023-05-01T04:29:12.467Z,5.45
2023-05-01T04:31:41.721Z,6.22
2023-05-01T04:34:10.381Z,6.07
2023-05-01T04:36:38.125Z,5.47
2023-05-01T04:39:05.454Z,5.60
2023-05-01T04:41:33.218Z,5.30
2023-05-01T04:44:00.396Z,5.28
2023-05-01T04:46:27.478Z,5.10
2023-05-01T04:48:54.556Z,5.50
2023-05-01T04:51:23.454Z,5.60
2023-05-01T04:53:54.176Z,5.78
2023-05-01T04:56:24.589Z,5.63
2023-05-01T04:58:54.960Z,5.57
2023-05-01T05:01:25.405Z,5.47
2023-05-01T05:03:53.345Z,5.50
2023-05-01T05:06:22.806Z,5.53
2023-05-01T05:08:52.099Z,5.57
2023-05-01T05:11:19.185Z,5.30
2023-05-01T05:13:49.249Z,5.43
2023-05-01T05:16:16.475Z,5.35
2023-05-01T05:18:44.182Z,5.43
2023-05-01T05:21:11.202Z,5.68
2023-05-01T05:23:44.591Z,5.38
2023-05-01T05:26:11.972Z,5.47
2023-05-01T05:28:39.318Z,5.65
2023-05-01T05:31:07.466Z,5.53
2023-05-01T05:33:35.778Z,5.15
2023-05-01T05:36:03.203Z,5.20
2023-05-01T05:38:35.694Z,5.20
2023-05-01T05:41:05.615Z,5.40
2023-05-01T05:43:32.751Z,5.30
2023-05-01T05:46:01.355Z,4.95
2023-05-01T05:48:30.997Z,5.25
2023-05-01T05:50:58.110Z,5.47
2023-05-01T05:53:26.155Z,5.45
2023-05-01T05:55:54.229Z,5.40
2023-05-01T05:58:24.685Z,5.22
2023-05-01T06:00:55.900Z,6.05
2023-05-01T06:03:23.237Z,5.50
2023-05-01T06:05:52.604Z,6.60
2023-05-01T06:08:19.761Z,5.93
2023-05-01T06:10:48.055Z,5.30
2023-05-01T06:13:15.580Z,5.78
2023-05-01T06:15:47.054Z,5.15
2023-05-01T06:18:14.302Z,5.55
2023-05-01T06:20:41.687Z,5.57
2023-05-01T06:23:09.651Z,5.30
2023-05-01T06:26:06.384Z,5.90
2023-05-01T06:28:33.572Z,5.45
2023-05-01T06:31:02.138Z,5.32
2023-05-01T06:33:34.352Z,4.60
2023-05-01T06:36:16.128Z,4.82
2023-05-01T06:38:48.644Z,4.80
2023-05-01T06:41:16.221Z,4.38
2023-05-01T06:43:46.240Z,4.82
2023-05-01T06:46:14.677Z,4.80
2023-05-01T06:48:41.649Z,4.80
2023-05-01T06:51:08.700Z,4.70
2023-05-01T06:53:36.911Z,4.90
2023-05-01T06:56:04.126Z,4.35
2023-05-01T06:58:31.068Z,3.85
2023-05-01T07:00:58.245Z,4.13
2023-05-01T07:03:29.652Z,3.80
2023-05-01T07:05:56.795Z,4.38
2023-05-01T07:08:24.414Z,4.20
2023-05-01T07:10:51.733Z,3.47
2023-05-01T07:13:19.529Z,4.05
2023-05-01T07:15:46.879Z,4.32
2023-05-01T07:18:13.869Z,4.10
2023-05-01T07:20:42.337Z,3.90
2023-05-01T07:23:12.284Z,3.72
2023-05-01T07:25:41.416Z,3.90
2023-05-01T07:28:11.410Z,3.95
2023-05-01T07:30:38.745Z,3.90
2023-05-01T07:33:05.996Z,3.58
2023-05-01T07:35:33.037Z,4.18
2023-05-01T07:38:01.482Z,3.67
2023-05-01T07:40:28.632Z,3.40
2023-05-01T07:42:55.546Z,3.17
2023-05-01T07:45:22.486Z,2.72
2023-05-01T07:47:50.662Z,2.85
2023-05-01T07:50:17.780Z,2.95
2023-05-01T07:52:45.448Z,2.50
2023-05-01T07:55:13.951Z,3.10
2023-05-01T07:57:41.277Z,2.20
2023-05-01T08:00:09.352Z,2.85
2023-05-01T08:02:42.492Z,2.50
2023-05-01T08:05:09.984Z,2.83
2023-05-01T08:07:37.014Z,2.28
2023-05-01T08:10:04.736Z,2.58
2023-05-01T08:12:34.586Z,2.22
2023-05-01T08:15:01.688Z,2.03
2023-05-01T08:17:31.534Z,2.03
2023-05-01T08:19:59.109Z,2.50
2023-05-01T08:22:26.268Z,2.35
2023-05-01T08:24:55.327Z,2.40
2023-05-01T08:27:22.416Z,2.10
2023-05-01T08:29:50.775Z,2.83
2023-05-01T08:32:18.893Z,2.28
2023-05-01T08:34:46.516Z,2.88
2023-05-01T08:37:13.830Z,2.47
2023-05-01T08:39:41.097Z,2.40
2023-05-01T08:42:08.662Z,2.65
2023-05-01T08:44:39.692Z,2.50
2023-05-01T08:47:14.836Z,2.67
2023-05-01T08:49:45.313Z,2.50
2023-05-01T08:52:14.208Z,2.28
2023-05-01T08:54:44.973Z,2.50
2023-05-01T08:57:12.989Z,3.03
2023-05-01T08:59:41.188Z,2.55
2023-05-01T09:02:10.426Z,2.35
2023-05-01T09:04:39.304Z,2.25
2023-05-01T09:07:07.205Z,2.10
2023-05-01T09:09:34.332Z,2.22
2023-05-01T09:12:08.856Z,2.40
2023-05-01T09:14:36.136Z,2.60
2023-05-01T09:17:03.352Z,2.58
2023-05-01T09:19:31.648Z,2.35
2023-05-01T09:21:58.617Z,2.60
2023-05-01T09:24:25.678Z,2.13
2023-05-01T09:26:52.775Z,2.60
2023-05-01T09:29:40.624Z,1.95
2023-05-01T09:32:16.230Z,2.20
2023-05-01T09:34:45.312Z,1.98
2023-05-01T09:37:28.622Z,2.13
2023-05-01T09:40:04.501Z,2.38
2023-05-01T09:42:32.635Z,1.90
2023-05-01T09:45:00.578Z,1.80
2023-05-01T09:47:28.758Z,2.30
2023-05-01T09:50:00.793Z,2.33
2023-05-01T09:52:30.449Z,2.00
2023-05-01T09:55:22.243Z,2.17
2023-05-01T09:57:50.286Z,2.00
2023-05-01T10:00:21.332Z,2.03
2023-05-01T10:02:49.731Z,2.05
2023-05-01T10:05:19.326Z,2.08
2023-05-01T10:07:57.724Z,1.88
2023-05-01T10:10:24.958Z,2.28
2023-05-01T10:12:52.092Z,1.90
2023-05-01T10:15:26.304Z,1.70
2023-05-01T10:20:23.028Z,1.70
2023-05-01T10:22:50.443Z,2.20
2023-05-01T10:25:18.059Z,1.90
2023-05-01T10:27:45.280Z,1.70
2023-05-01T10:30:12.994Z,2.30
2023-05-01T10:32:43.179Z,2.10
2023-05-01T10:35:18.604Z,2.70
2023-05-01T10:37:49.026Z,2.38
2023-05-01T10:40:44.176Z,1.90
2023-05-01T10:43:25.835Z,1.92
2023-05-01T10:45:54.305Z,2.00
2023-05-01T10:48:55.964Z,1.70
2023-05-01T10:51:26.541Z,1.70
2023-05-01T10:54:23.682Z,1.88
2023-05-01T10:56:51.231Z,1.90
2023-05-01T10:59:18.349Z,2.05
2023-05-01T11:01:47.692Z,1.90
2023-05-01T11:04:51.074Z,2.00
2023-05-01T11:07:19.215Z,2.22
2023-05-01T11:09:55.500Z,2.05
2023-05-01T11:12:49.310Z,2.10
2023-05-01T11:15:26.456Z,2.30
2023-05-01T11:17:53.766Z,3.10
2023-05-01T11:20:46.599Z,2.22
2023-05-01T11:23:20.875Z,1.92
2023-05-01T11:25:49.877Z,2.00
2023-05-01T11:28:22.944Z,1.80
2023-05-01T11:30:50.084Z,2.30
2023-05-01T11:33:26.255Z,1.95
2023-05-01T11:36:03.339Z,1.95
2023-05-01T11:38:30.642Z,1.85
2023-05-01T11:41:04.395Z,1.92
2023-05-01T11:43:31.909Z,1.97
2023-05-01T11:46:03.928Z,2.00
2023-05-01T11:48:31.606Z,2.20
2023-05-01T11:50:58.672Z,1.67
2023-05-01T11:53:26.003Z,2.00
2023-05-01T11:55:53.132Z,2.35
2023-05-01T11:58:34.473Z,1.70
2023-05-01T12:01:02.375Z,1.83
2023-05-01T12:03:40.418Z,1.98
2023-05-01T12:06:09.278Z,2.13
2023-05-01T12:08:36.816Z,1.90
2023-05-01T12:11:04.373Z,1.80
2023-05-01T12:13:31.633Z,1.70
2023-05-01T12:16:00.952Z,1.58
2023-05-01T12:18:27.980Z,1.60
2023-05-01T12:20:55.471Z,1.90
2023-05-01T12:23:32.099Z,1.88
2023-05-01T12:25:59.238Z,2.00
2023-05-01T12:28:27.780Z,2.03
2023-05-01T12:31:05.514Z,1.83
2023-05-01T12:33:32.771Z,1.88
2023-05-01T12:36:09.922Z,2.10
2023-05-01T12:38:37.460Z,2.08
2023-05-01T12:41:07.235Z,2.03
2023-05-01T12:43:38.381Z,1.75
2023-05-01T12:46:15.403Z,1.88
2023-05-01T12:48:42.747Z,1.70
2023-05-01T12:51:09.742Z,2.10
2023-05-01T12:53:44.374Z,1.90
2023-05-01T12:56:23.289Z,2.20
2023-05-01T12:58:51.704Z,2.40
2023-05-01T13:01:26.582Z,1.92
2023-05-01T13:03:54.689Z,2.10
2023-05-01T13:06:21.832Z,2.80
2023-05-01T13:08:49.897Z,2.30
2023-05-01T13:11:17.906Z,2.08
2023-05-01T13:13:45.957Z,2.35
2023-05-01T13:16:14.149Z,2.45
2023-05-01T13:18:50.723Z,2.20
2023-05-01T13:21:20.829Z,2.20
2023-05-01T13:23:55.544Z,2.33
2023-05-01T13:26:27.077Z,2.13
2023-05-01T13:28:55.514Z,2.10
2023-05-01T13:31:22.567Z,2.33
2023-05-01T13:33:52.558Z,2.60
2023-05-01T13:36:26.457Z,2.40
2023-05-01T13:38:56.237Z,2.30
2023-05-01T13:41:25.621Z,2.60
2023-05-01T13:43:54.213Z,2.35
2023-05-01T13:46:23.431Z,2.50
2023-05-01T13:48:52.190Z,2.10
2023-05-01T13:51:22.460Z,2.50
2023-05-01T13:53:49.522Z,2.50
2023-05-01T13:56:16.672Z,2.10
2023-05-01T13:58:43.886Z,2.17
2023-05-01T14:01:16.050Z,1.58
2023-05-01T14:03:43.765Z,1.95
2023-05-01T14:06:14.463Z,1.67
2023-05-01T14:08:41.762Z,1.92
2023-05-01T14:11:09.849Z,1.70
2023-05-01T14:13:36.768Z,2.55
2023-05-01T14:16:10.454Z,2.20
2023-05-01T14:18:43.697Z,1.92
2023-05-01T14:21:12.289Z,2.00
2023-05-01T14:23:42.069Z,1.90
2023-05-01T14:26:11.244Z,2.40
2023-05-01T14:28:43.240Z,2.42
2023-05-01T14:31:16.092Z,2.05
2023-05-01T14:33:47.376Z,2.17
2023-05-01T14:36:18.728Z,2.10
2023-05-01T14:38:49.264Z,1.80
2023-05-01T14:41:18.378Z,1.85
2023-05-01T14:43:45.916Z,1.77
2023-05-01T14:46:14.782Z,2.50
2023-05-01T14:48:42.679Z,3.20
2023-05-01T14:51:11.123Z,1.85
2023-05-01T14:53:42.022Z,2.00
2023-05-01T14:56:09.334Z,1.90
2023-05-01T14:58:36.419Z,2.00
2023-05-01T15:01:05.485Z,2.08
2023-05-01T15:03:36.231Z,1.70
2023-05-01T15:06:04.284Z,2.13
2023-05-01T15:08:32.494Z,1.98
2023-05-01T15:11:01.095Z,2.20
2023-05-01T15:13:28.843Z,2.03
2023-05-01T15:15:56.278Z,2.30
2023-05-01T15:18:23.669Z,2.10
2023-05-01T15:20:50.616Z,3.00
2023-05-01T15:23:17.855Z,2.20
2023-05-01T15:25:44.926Z,2.70
2023-05-01T15:28:14.173Z,3.83
2023-05-01T15:30:44.790Z,7.80
2023-05-01T15:33:12.302Z,6.40
2023-05-01T15:35:39.358Z,3.15
2023-05-01T15:38:06.524Z,2.42
2023-05-01T15:40:34.961Z,2.05
2023-05-01T15:43:04.268Z,9.63
2023-05-01T15:45:32.968Z,2.75
2023-05-01T15:48:00.107Z,5.68
2023-05-01T15:50:27.677Z,16.63
2023-05-01T15:52:54.672Z,5.55
2023-05-01T15:55:22.059Z,2.20
2023-05-01T15:57:49.370Z,2.75
2023-05-01T16:00:17.219Z,2.58
2023-05-01T16:02:45.740Z,4.93
2023-05-01T16:05:14.231Z,2.30
2023-05-01T16:07:41.384Z,2.92
2023-05-01T16:10:09.799Z,2.03
2023-05-01T16:12:37.153Z,3.20
2023-05-01T16:15:05.338Z,1.90
2023-05-01T16:17:33.882Z,2.15
2023-05-01T16:20:03.058Z,2.58
2023-05-01T16:22:32.802Z,7.97
2023-05-01T16:25:01.306Z,3.60
2023-05-01T16:27:28.286Z,10.13
2023-05-01T16:29:55.311Z,28.80
2023-05-01T16:32:24.132Z,10.65
2023-05-01T16:34:51.231Z,3.40
2023-05-01T16:37:22.552Z,8.90
2023-05-01T16:39:49.675Z,30.17
2023-05-01T16:42:16.671Z,27.48
2023-05-01T16:44:43.647Z,29.90
2023-05-01T16:47:12.120Z,24.10
2023-05-01T16:49:42.132Z,13.63
2023-05-01T16:52:13.457Z,12.45
2023-05-01T16:54:41.973Z,8.73
2023-05-01T16:57:09.074Z,15.25
2023-05-01T16:59:37.677Z,16.38
2023-05-01T17:02:05.779Z,22.48
2023-05-01T17:04:33.527Z,10.98
2023-05-01T17:07:00.661Z,12.18
2023-05-01T17:09:27.760Z,7.72
2023-05-01T17:11:57.597Z,4.20
2023-05-01T17:14:28.881Z,23.70
2023-05-01T17:16:58.834Z,54.15
2023-05-01T17:19:25.883Z,90.07
2023-05-01T17:21:52.916Z,72.70
2023-05-01T17:24:19.959Z,12.13
2023-05-01T17:26:46.879Z,10.80
2023-05-01T17:29:15.331Z,8.73
2023-05-01T17:31:42.401Z,10.68
2023-05-01T17:34:09.343Z,11.13
2023-05-01T17:36:36.730Z,10.23
2023-05-01T17:39:04.418Z,14.00
2023-05-01T17:41:31.393Z,9.68
2023-05-01T17:43:58.393Z,10.73
2023-05-01T17:46:26.950Z,7.68
2023-05-01T17:48:54.288Z,5.72
2023-05-01T17:51:21.212Z,6.10
2023-05-01T17:53:48.451Z,6.20
2023-05-01T17:56:16.166Z,5.15
2023-05-01T17:58:43.131Z,5.78
2023-05-01T18:01:10.232Z,5.38
2023-05-01T18:03:39.126Z,6.28
2023-05-01T18:06:06.462Z,7.32
2023-05-01T18:08:33.452Z,7.10
2023-05-01T18:11:00.445Z,9.50
2023-05-01T18:13:30.610Z,11.80
2023-05-01T18:15:57.737Z,8.45
2023-05-01T18:18:24.884Z,17.05
2023-05-01T18:20:53.147Z,39.33
2023-05-01T18:23:20.220Z,41.17
2023-05-01T18:25:47.243Z,41.47
2023-05-01T18:28:16.584Z,45.92
2023-05-01T18:30:43.817Z,34.63
2023-05-01T18:33:11.166Z,15.63
2023-05-01T18:35:39.880Z,7.47
2023-05-01T18:38:08.346Z,5.22
2023-05-01T18:40:35.931Z,6.35
2023-05-01T18:43:03.130Z,6.45
2023-05-01T18:45:30.864Z,5.68
2023-05-01T18:48:00.362Z,4.78
2023-05-01T18:50:27.631Z,3.35
2023-05-01T18:52:54.568Z,5.30
2023-05-01T18:55:22.913Z,5.25
2023-05-01T18:57:49.837Z,4.88
2023-05-01T19:00:17.684Z,3.25
2023-05-01T19:02:51.298Z,3.05
2023-05-01T19:05:18.925Z,2.90
2023-05-01T19:07:46.564Z,3.70
2023-05-01T19:10:14.250Z,3.67
2023-05-01T19:12:42.541Z,3.40
2023-05-01T19:15:10.377Z,3.03
2023-05-01T19:17:37.742Z,3.25
2023-05-01T19:20:06.062Z,3.80
2023-05-01T19:22:33.071Z,3.90
2023-05-01T19:25:02.957Z,3.88
2023-05-01T19:27:29.940Z,3.85
2023-05-01T19:30:00.933Z,3.10
2023-05-01T19:32:28.637Z,3.28
2023-05-01T19:34:56.746Z,3.60
2023-05-01T19:37:23.763Z,3.42
2023-05-01T19:39:50.964Z,3.03
2023-05-01T19:42:18.056Z,3.45
2023-05-01T19:44:46.109Z,3.28
2023-05-01T19:47:14.446Z,3.40
2023-05-01T19:49:41.454Z,3.33
2023-05-01T19:52:09.077Z,3.03
2023-05-01T19:54:36.177Z,3.63
2023-05-01T19:57:03.582Z,3.33
2023-05-01T19:59:30.772Z,3.78
2023-05-01T20:01:59.634Z,3.83
2023-05-01T20:04:29.382Z,3.63
2023-05-01T20:06:56.461Z,3.70
2023-05-01T20:09:23.494Z,3.85
2023-05-01T20:11:51.109Z,3.53
2023-05-01T20:14:18.120Z,3.72
2023-05-01T20:16:45.081Z,3.58
2023-05-01T20:19:12.744Z,3.45
2023-05-01T20:21:41.200Z,3.28
2023-05-01T20:24:08.350Z,3.30
2023-05-01T20:26:35.349Z,3.63
2023-05-01T20:29:02.801Z,3.35
2023-05-01T20:31:29.840Z,3.55
2023-05-01T20:33:56.912Z,3.05
2023-05-01T20:36:25.345Z,3.13
2023-05-01T20:38:54.167Z,3.45
2023-05-01T20:41:21.757Z,3.60
2023-05-01T20:43:48.757Z,3.40
2023-05-01T20:46:15.663Z,3.45
2023-05-01T20:48:43.184Z,3.38
2023-05-01T20:51:10.399Z,3.35
2023-05-01T20:53:37.395Z,3.97
2023-05-01T20:56:06.123Z,3.40
2023-05-01T20:58:35.487Z,4.18
2023-05-01T21:01:02.494Z,5.05
2023-05-01T21:03:29.686Z,5.30
2023-05-01T21:05:59.988Z,4.50
2023-05-01T21:08:28.633Z,4.05
2023-05-01T21:10:55.700Z,3.97
2023-05-01T21:13:26.190Z,3.30
2023-05-01T21:15:53.681Z,3.60
2023-05-01T21:18:21.151Z,3.50
2023-05-01T21:20:48.878Z,3.42
2023-05-01T21:23:16.967Z,3.67
2023-05-01T21:25:44.311Z,3.60
2023-05-01T21:28:12.551Z,3.58
2023-05-01T21:30:41.134Z,3.53
2023-05-01T21:33:12.547Z,3.70
2023-05-01T21:35:44.415Z,3.60
2023-05-01T21:38:11.527Z,3.20
2023-05-01T21:40:42.005Z,3.40
2023-05-01T21:43:09.443Z,3.70
2023-05-01T21:45:40.565Z,3.45
2023-05-01T21:48:09.421Z,4.10
2023-05-01T21:50:40.596Z,4.60
2023-05-01T21:53:07.693Z,4.75
2023-05-01T21:55:34.787Z,4.45
2023-05-01T21:58:02.274Z,4.38
2023-05-01T22:00:30.092Z,4.55
2023-05-01T22:02:57.509Z,4.55
2023-05-01T22:05:29.224Z,3.83
2023-05-01T22:07:56.252Z,3.97
2023-05-01T22:10:23.193Z,3.95
2023-05-01T22:12:50.298Z,4.57
2023-05-01T22:15:17.474Z,4.72
2023-05-01T22:17:44.967Z,4.80
2023-05-01T22:20:12.562Z,4.60
2023-05-01T22:22:41.882Z,4.90
2023-05-01T22:25:10.072Z,4.22
2023-05-01T22:27:37.714Z,4.93
2023-05-01T22:30:05.467Z,4.20
2023-05-01T22:32:32.541Z,4.38
2023-05-01T22:34:59.697Z,4.47
2023-05-01T22:37:26.837Z,4.50
2023-05-01T22:39:55.104Z,4.18
2023-05-01T22:42:23.088Z,4.25
2023-05-01T22:44:50.144Z,4.25
2023-05-01T22:47:17.541Z,3.83
2023-05-01T22:49:44.529Z,4.32
2023-05-01T22:52:11.520Z,4.63
2023-05-01T22:54:38.456Z,4.50
2023-05-01T22:57:06.754Z,4.55
2023-05-01T22:59:33.796Z,4.78
2023-05-01T23:02:01.983Z,4.85
2023-05-01T23:04:29.021Z,4.97
2023-05-01T23:06:56.791Z,5.10
2023-05-01T23:09:23.703Z,4.72
2023-05-01T23:11:50.664Z,4.82
2023-05-01T23:14:19.097Z,5.18
2023-05-01T23:16:46.021Z,5.22
2023-05-01T23:19:20.165Z,5.35
2023-05-01T23:21:47.516Z,5.20
2023-05-01T23:24:16.912Z,5.00
2023-05-01T23:26:45.768Z,5.05
2023-05-01T23:29:13.650Z,5.05
2023-05-01T23:31:47.101Z,4.90
2023-05-01T23:34:15.917Z,4.93
2023-05-01T23:36:44.475Z,5.47
2023-05-01T23:39:11.466Z,4.88
2023-05-01T23:41:38.840Z,4.75
2023-05-01T23:44:06.404Z,5.30
2023-05-01T23:46:33.513Z,5.47
2023-05-01T23:49:02.151Z,5.63
2023-05-01T23:51:29.515Z,6.05
2023-05-01T23:53:56.424Z,6.18
2023-05-01T23:56:23.333Z,6.00
2023-05-01T23:58:50.220Z,5.70
